Flight Track Log - Related Links

Times and Time Zones

All times are in EDT time to prevent confusion due to time zone crossing. See the JAL139 flight status page for this flight to view local times or setup timezone preferences in your user account.

Time Position Orientation Groundspeed Altitude Reporting Facility
EDT Latitude Longitude Course Direction KTS MPH feet Rate Location/Type
Tue 06:45:00 AM 35.4927 139.4046 259° West  Level Estimated
Tue 06:46:00 AM 35.4726 139.2797 259° West  Level Estimated
Tue 06:47:00 AM 35.4523 139.1548 259° West  Level Estimated
Tue 06:48:00 AM 35.4325 139.0335 259° West  Level Estimated
Tue 06:49:00 AM 35.4126 138.9123 259° West  Level Estimated
Tue 06:50:00 AM 35.3925 138.7911 259° West  Level Estimated
Tue 06:51:00 AM 35.3723 138.6699 258° West  Level Estimated
Tue 06:52:00 AM 35.3521 138.5488 258° West  Level Estimated
Tue 06:53:00 AM 35.3316 138.4278 258° West  Level Estimated
Tue 06:54:00 AM 35.3111 138.3069 258° West  Level Estimated
Tue 06:55:00 AM 35.2905 138.1860 258° West  Level Estimated
Tue 06:56:00 AM 35.2697 138.0652 258° West  Level Estimated
Tue 06:57:00 AM 35.2488 137.9444 258° West  Level Estimated
Tue 06:58:00 AM 35.2278 137.8237 258° West  Level Estimated
Tue 06:59:00 AM 35.2067 137.7030 258° West  Level Estimated
Tue 07:00:00 AM 35.1854 137.5825 258° West  Level Estimated
Tue 07:01:00 AM 35.1641 137.4619 258° West  Level Estimated
Tue 07:02:00 AM 35.1426 137.3415 258° West  Level Estimated
Tue 07:03:00 AM 35.1209 137.2211 258° West  Level Estimated
Tue 07:04:00 AM 35.0992 137.1008 258° West  Level Estimated
Tue 07:05:00 AM 35.0774 136.9805 258° West  Level Estimated
Tue 07:06:00 AM 35.0554 136.8603 257° West  Level Estimated
Tue 07:07:00 AM 35.0333 136.7402 257° West  Level Estimated
Tue 07:08:00 AM 35.0111 136.6201 257° West  Level Estimated
Tue 07:09:00 AM 34.9888 136.5001 257° West  Level Estimated
Tue 07:10:00 AM 34.9663 136.3802 257° West  Level Estimated
Tue 07:11:00 AM 34.9438 136.2603 257° West  Level Estimated
Tue 07:12:00 AM 34.9211 136.1405 257° West  Level Estimated
Tue 07:13:00 AM 34.9011 136.0354 257° West  Level Estimated
Tue 07:14:00 AM 34.8810 135.9303 257° West  Level Estimated
Tue 07:15:00 AM 34.8608 135.8252 257° West  Level Estimated
Tue 07:16:00 AM 34.8405 135.7203 257° West  Level Estimated
Tue 07:17:00 AM 34.8201 135.6153 257° West  Level Estimated
Tue 07:18:00 AM 34.7997 135.5105 257° West  Level Estimated
Tue 07:19:00 AM 34.7855 135.4382 257° West  Level Estimated
Tue 07:20:00 AM 34.7855 135.4382 141° Southeast  Level Estimated
Tue 07:21:00 AM 34.7855 135.4382 141° Southeast  Level Estimated
Tue 07:22:00 AM 34.7855 135.4382 141° Southeast  Level Estimated
Tue 07:23:00 AM 34.7855 135.4382 141° Southeast  Level Estimated
Tue 07:24:00 AM 34.7855 135.4382 141° Southeast  Level Estimated
Tue 07:25:00 AM 34.7855 135.4382 141° Southeast  Level Estimated
Tue 07:26:00 AM 34.7855 135.4382 141° Southeast  Level Estimated
Tue 07:27:00 AM 34.7855 135.4382 141° Southeast  Level Estimated
Tue 07:28:00 AM 34.7855 135.4382 141° Southeast  Level Estimated
Tue 07:29:00 AM 34.7855 135.4382 141° Southeast  Level Estimated
Tue 07:30:00 AM 34.7855 135.4382 141° Southeast  Level Estimated
Tue 07:31:00 AM 34.7855 135.4382 141° Southeast  Level Estimated
Tue 07:32:00 AM 34.7855 135.4382 141° Southeast  Level Estimated
Tue 07:33:00 AM 34.7855 135.4382 141° Southeast  Level Estimated
Tue 07:34:00 AM 34.7855 135.4382 141° Southeast  Level Estimated
Tue 07:35:00 AM 34.7855 135.4382 141° Southeast  Level Estimated

Login

Don't have an account? Register now (free) for customized features, flight alerts, and more!